createdAt,value
2023-03-30T00:02:03.505Z,35.70
2023-03-30T00:04:34.711Z,35.40
2023-03-30T00:07:02.955Z,35.20
2023-03-30T00:09:32.581Z,35.10
2023-03-30T00:12:03.884Z,34.90
2023-03-30T00:14:31.911Z,34.70
2023-03-30T00:17:02.091Z,34.60
2023-03-30T00:19:30.797Z,34.50
2023-03-30T00:21:58.846Z,34.30
2023-03-30T00:24:27.447Z,34.60
2023-03-30T00:26:56.273Z,35.00
2023-03-30T00:29:25.108Z,35.30
2023-03-30T00:31:53.186Z,35.30
2023-03-30T00:34:22.673Z,34.90
2023-03-30T00:36:53.426Z,34.70
2023-03-30T00:39:26.675Z,34.60
2023-03-30T00:41:54.830Z,34.50
2023-03-30T00:45:00.189Z,34.40
2023-03-30T00:47:28.659Z,34.20
2023-03-30T00:49:58.102Z,34.10
2023-03-30T00:52:27.954Z,34.40
2023-03-30T00:54:56.928Z,34.60
2023-03-30T00:57:25.240Z,35.00
2023-03-30T00:59:53.384Z,35.10
2023-03-30T01:02:22.002Z,34.80
2023-03-30T01:04:50.628Z,34.70
2023-03-30T01:07:24.852Z,34.40
2023-03-30T01:09:53.015Z,34.40
2023-03-30T01:12:21.131Z,34.20
2023-03-30T01:14:49.310Z,34.20
2023-03-30T01:17:20.048Z,34.00
2023-03-30T01:20:18.241Z,34.20
2023-03-30T01:23:12.982Z,34.50
2023-03-30T01:25:58.572Z,34.90
2023-03-30T01:28:37.255Z,35.00
2023-03-30T01:31:39.649Z,34.60
2023-03-30T01:34:48.128Z,34.60
2023-03-30T01:37:23.274Z,34.30
2023-03-30T01:39:57.884Z,34.20
2023-03-30T01:42:28.424Z,34.00
2023-03-30T01:44:58.342Z,34.00
2023-03-30T01:47:30.581Z,34.00
2023-03-30T01:50:00.203Z,34.30
2023-03-30T01:52:30.648Z,34.70
2023-03-30T01:55:04.757Z,35.00
2023-03-30T01:57:35.098Z,35.30
2023-03-30T02:00:10.985Z,35.50
2023-03-30T02:02:39.134Z,35.70
2023-03-30T02:05:07.799Z,35.40
2023-03-30T02:07:36.066Z,35.10
2023-03-30T02:10:08.160Z,35.00
2023-03-30T02:12:36.380Z,34.80
2023-03-30T02:15:06.082Z,34.70
2023-03-30T02:17:35.830Z,34.50
2023-03-30T02:20:08.605Z,34.30
2023-03-30T02:22:37.715Z,34.30
2023-03-30T02:25:08.594Z,34.60
2023-03-30T02:27:37.959Z,35.00
2023-03-30T02:30:07.812Z,35.30
2023-03-30T02:32:41.511Z,35.00
2023-03-30T02:35:22.274Z,34.90
2023-03-30T02:38:09.875Z,34.70
2023-03-30T02:40:42.597Z,34.60
2023-03-30T02:43:22.067Z,34.40
2023-03-30T02:45:53.313Z,34.20
2023-03-30T02:48:31.097Z,34.10
2023-03-30T02:51:03.000Z,34.10
2023-03-30T02:53:33.862Z,34.40
2023-03-30T02:56:04.298Z,34.90
2023-03-30T02:58:35.729Z,35.20
2023-03-30T03:01:04.942Z,34.80
2023-03-30T03:03:35.423Z,34.80
2023-03-30T03:06:03.567Z,34.60
2023-03-30T03:08:34.493Z,34.50
2023-03-30T03:11:04.187Z,34.30
2023-03-30T03:13:32.789Z,34.20
2023-03-30T03:16:03.625Z,34.20
2023-03-30T03:18:32.368Z,34.00
2023-03-30T03:21:00.474Z,34.50
2023-03-30T03:23:28.614Z,34.70
2023-03-30T03:25:57.023Z,35.00
2023-03-30T03:28:26.568Z,34.90
2023-03-30T03:30:54.717Z,34.80
2023-03-30T03:33:22.909Z,34.60
2023-03-30T03:35:54.292Z,34.40
2023-03-30T03:38:22.930Z,34.30
2023-03-30T03:40:51.690Z,34.20
2023-03-30T03:43:19.850Z,34.10
2023-03-30T03:45:50.307Z,33.90
2023-03-30T03:48:19.232Z,34.20
2023-03-30T03:50:50.009Z,34.60
2023-03-30T03:53:18.623Z,34.90
2023-03-30T03:55:46.835Z,35.20
2023-03-30T03:58:17.190Z,35.40
2023-03-30T04:00:45.367Z,35.60
2023-03-30T04:03:16.010Z,35.70
2023-03-30T04:05:44.890Z,35.20
2023-03-30T04:08:18.095Z,35.20
2023-03-30T04:10:48.865Z,35.00
2023-03-30T04:13:18.710Z,34.80
2023-03-30T04:15:49.439Z,34.70
2023-03-30T04:18:18.953Z,34.40
2023-03-30T04:20:48.489Z,34.40
2023-03-30T04:23:22.178Z,34.40
2023-03-30T04:25:53.011Z,34.80
2023-03-30T04:28:22.972Z,35.20
2023-03-30T04:30:51.259Z,35.30
2023-03-30T04:33:21.291Z,35.00
2023-03-30T04:35:50.466Z,34.90
2023-03-30T04:38:22.177Z,34.60
2023-03-30T04:40:51.420Z,34.50
2023-03-30T04:43:21.576Z,34.50
2023-03-30T04:45:50.813Z,34.30
2023-03-30T04:48:20.718Z,34.20
2023-03-30T04:50:50.569Z,34.20
2023-03-30T04:53:19.557Z,34.40
2023-03-30T04:55:49.023Z,34.90
2023-03-30T04:58:17.084Z,35.10
2023-03-30T05:00:45.154Z,34.90
2023-03-30T05:03:13.390Z,34.60
2023-03-30T05:05:43.128Z,34.60
2023-03-30T05:08:11.709Z,34.40
2023-03-30T05:10:39.756Z,34.30
2023-03-30T05:13:08.009Z,34.20
2023-03-30T05:15:36.285Z,34.10
2023-03-30T05:18:04.422Z,33.90
2023-03-30T05:20:38.770Z,34.20
2023-03-30T05:23:08.216Z,34.60
2023-03-30T05:25:36.978Z,34.90
2023-03-30T05:30:33.154Z,34.70
2023-03-30T05:33:01.303Z,34.50
2023-03-30T05:35:29.409Z,34.30
2023-03-30T05:37:58.783Z,34.20
2023-03-30T05:40:28.212Z,34.20
2023-03-30T05:42:56.469Z,34.00
2023-03-30T05:45:24.593Z,34.00
2023-03-30T05:47:54.371Z,34.10
2023-03-30T05:50:23.033Z,34.40
2023-03-30T05:52:51.808Z,34.70
2023-03-30T05:55:27.780Z,34.90
2023-03-30T05:57:57.877Z,35.20
2023-03-30T06:00:26.384Z,35.40
2023-03-30T06:02:54.504Z,35.70
2023-03-30T06:05:22.931Z,35.20
2023-03-30T06:07:51.375Z,35.00
2023-03-30T06:10:19.902Z,34.90
2023-03-30T06:12:48.180Z,34.70
2023-03-30T06:15:17.847Z,34.60
2023-03-30T06:17:46.843Z,34.40
2023-03-30T06:20:15.221Z,34.20
2023-03-30T06:22:43.947Z,34.80
2023-03-30T06:25:13.633Z,34.50
2023-03-30T06:27:44.137Z,34.90
2023-03-30T06:30:13.777Z,35.20
2023-03-30T06:32:43.573Z,35.00
2023-03-30T06:35:13.595Z,34.70
2023-03-30T06:37:41.971Z,34.60
2023-03-30T06:40:13.407Z,34.40
2023-03-30T06:42:41.869Z,34.40
2023-03-30T06:45:10.624Z,34.90
2023-03-30T06:47:39.266Z,34.10
2023-03-30T06:50:10.633Z,34.00
2023-03-30T06:52:38.842Z,34.30
2023-03-30T06:55:08.055Z,34.60
2023-03-30T06:57:36.633Z,34.90
2023-03-30T07:00:09.424Z,35.00
2023-03-30T07:02:37.547Z,34.60
2023-03-30T07:05:07.171Z,34.40
2023-03-30T07:07:36.665Z,34.40
2023-03-30T07:10:10.518Z,34.20
2023-03-30T07:12:38.708Z,34.10
2023-03-30T07:15:08.846Z,34.00
2023-03-30T07:17:37.543Z,33.80
2023-03-30T07:20:08.082Z,34.10
2023-03-30T07:22:37.816Z,34.30
2023-03-30T07:25:06.759Z,34.30
2023-03-30T07:27:36.252Z,35.00
2023-03-30T07:30:13.755Z,34.60
2023-03-30T07:32:52.049Z,34.50
2023-03-30T07:35:20.250Z,34.40
2023-03-30T07:37:51.093Z,34.20
2023-03-30T07:40:20.269Z,34.10
2023-03-30T07:42:48.929Z,34.00
2023-03-30T07:45:17.278Z,33.90
2023-03-30T07:47:45.479Z,33.90
2023-03-30T07:50:13.691Z,34.20
2023-03-30T07:52:41.904Z,34.50
2023-03-30T07:55:11.438Z,34.90
2023-03-30T07:57:39.868Z,35.20
2023-03-30T08:00:10.500Z,35.30
2023-03-30T08:02:39.073Z,35.40
2023-03-30T08:05:08.030Z,35.30
2023-03-30T08:07:36.991Z,35.10
2023-03-30T08:10:05.491Z,34.90
2023-03-30T08:12:35.222Z,34.70
2023-03-30T08:15:03.895Z,34.60
2023-03-30T08:17:32.007Z,34.40
2023-03-30T08:20:01.838Z,34.20
2023-03-30T08:22:29.965Z,34.20
2023-03-30T08:24:58.197Z,34.40
2023-03-30T08:27:26.657Z,34.70
2023-03-30T08:29:56.179Z,35.10
2023-03-30T08:32:24.491Z,35.10
2023-03-30T08:34:54.094Z,34.70
2023-03-30T08:37:22.744Z,34.60
2023-03-30T08:39:50.795Z,34.40
2023-03-30T08:42:30.680Z,34.20
2023-03-30T08:45:05.212Z,34.20
2023-03-30T08:47:34.477Z,34.00
2023-03-30T08:50:06.536Z,34.00
2023-03-30T08:52:34.664Z,34.10
2023-03-30T08:55:03.440Z,34.30
2023-03-30T08:57:37.116Z,34.80
2023-03-30T09:00:15.078Z,34.90
2023-03-30T09:02:44.015Z,34.60
2023-03-30T09:05:19.169Z,34.40
2023-03-30T09:07:50.425Z,34.20
2023-03-30T09:10:19.878Z,34.20
2023-03-30T09:12:48.683Z,34.10
2023-03-30T09:15:19.372Z,33.90
2023-03-30T09:17:49.397Z,33.90
2023-03-30T09:20:20.696Z,33.90
2023-03-30T09:22:48.872Z,34.20
2023-03-30T09:25:18.305Z,34.40
2023-03-30T09:27:55.752Z,34.90
2023-03-30T09:30:27.629Z,34.60
2023-03-30T09:33:00.293Z,35.00
2023-03-30T09:35:36.679Z,34.20
2023-03-30T09:38:05.231Z,34.10
2023-03-30T09:40:39.865Z,34.00
2023-03-30T09:43:11.983Z,33.90
2023-03-30T09:45:41.537Z,33.70
2023-03-30T09:48:10.313Z,33.80
2023-03-30T09:50:40.551Z,34.10
2023-03-30T09:53:12.078Z,34.40
2023-03-30T09:55:40.294Z,34.80
2023-03-30T09:58:13.260Z,35.10
2023-03-30T10:00:42.737Z,35.50
2023-03-30T10:03:20.391Z,35.70
2023-03-30T10:05:50.973Z,35.30
2023-03-30T10:08:23.668Z,35.00
2023-03-30T10:10:54.664Z,34.80
2023-03-30T10:13:26.351Z,34.60
2023-03-30T10:15:56.068Z,34.50
2023-03-30T10:18:27.890Z,34.30
2023-03-30T10:20:56.869Z,34.20
2023-03-30T10:23:25.154Z,34.10
2023-03-30T10:25:53.258Z,34.40
2023-03-30T10:28:24.325Z,34.70
2023-03-30T10:30:52.830Z,35.00
2023-03-30T10:33:22.559Z,34.80
2023-03-30T10:35:53.777Z,34.60
2023-03-30T10:38:21.897Z,34.40
2023-03-30T10:40:51.389Z,34.30
2023-03-30T10:43:22.197Z,34.20
2023-03-30T10:45:51.170Z,34.00
2023-03-30T10:48:39.263Z,34.00
2023-03-30T10:51:11.493Z,33.80
2023-03-30T10:53:44.929Z,34.20
2023-03-30T10:56:17.938Z,34.50
2023-03-30T10:58:58.208Z,34.80
2023-03-30T11:01:29.590Z,34.80
2023-03-30T11:04:09.422Z,34.40
2023-03-30T11:06:44.650Z,34.20
2023-03-30T11:09:15.913Z,34.20
2023-03-30T11:11:47.678Z,34.00
2023-03-30T11:14:18.187Z,33.90
2023-03-30T11:16:52.125Z,33.80
2023-03-30T11:19:24.097Z,33.70
2023-03-30T11:21:57.131Z,34.00
2023-03-30T11:24:26.113Z,34.40
2023-03-30T11:26:56.992Z,34.60
2023-03-30T11:29:34.706Z,34.50
2023-03-30T11:32:12.872Z,34.20
2023-03-30T11:34:50.441Z,34.10
2023-03-30T11:37:21.236Z,34.00
2023-03-30T11:39:51.926Z,33.80
2023-03-30T11:42:23.395Z,33.80
2023-03-30T11:44:51.918Z,33.70
2023-03-30T11:47:37.523Z,33.50
2023-03-30T11:50:23.210Z,33.90
2023-03-30T11:52:58.292Z,34.30
2023-03-30T11:58:07.456Z,35.00
2023-03-30T12:00:49.636Z,35.40
2023-03-30T12:03:39.419Z,35.70
2023-03-30T12:06:24.353Z,34.90
2023-03-30T12:08:58.990Z,34.60
2023-03-30T12:11:34.980Z,34.40
2023-03-30T12:14:03.230Z,34.30
2023-03-30T12:16:32.975Z,34.20
2023-03-30T12:19:07.838Z,34.00
2023-03-30T12:21:41.188Z,33.90
2023-03-30T12:24:15.684Z,33.90
2023-03-30T12:27:03.805Z,34.70
2023-03-30T12:32:26.987Z,35.30
2023-03-30T12:35:02.898Z,34.90
2023-03-30T12:37:36.307Z,34.60
2023-03-30T12:40:09.154Z,34.50
2023-03-30T12:42:39.866Z,34.40
2023-03-30T12:45:32.377Z,34.80
2023-03-30T12:48:26.752Z,35.70
2023-03-30T12:51:01.271Z,34.30
2023-03-30T12:53:57.984Z,34.00
2023-03-30T12:57:14.112Z,34.30
2023-03-30T13:00:12.919Z,36.80
2023-03-30T13:03:21.577Z,36.30
2023-03-30T13:05:51.552Z,35.80
2023-03-30T13:08:21.555Z,36.10
2023-03-30T13:11:07.807Z,36.30
2023-03-30T13:14:25.731Z,36.30
2023-03-30T13:17:27.973Z,36.80
2023-03-30T13:20:28.159Z,34.00
2023-03-30T13:23:27.457Z,34.20
2023-03-30T13:26:06.288Z,34.60
2023-03-30T13:28:56.066Z,34.60
2023-03-30T13:31:49.510Z,34.20
2023-03-30T13:34:29.545Z,34.10
2023-03-30T13:37:08.319Z,33.90
2023-03-30T13:39:41.133Z,33.80
2023-03-30T13:42:47.306Z,33.70
2023-03-30T13:45:39.468Z,33.70
2023-03-30T13:48:16.735Z,33.70
2023-03-30T13:50:47.580Z,33.90
2023-03-30T13:53:22.521Z,34.20
2023-03-30T13:55:59.045Z,34.50
2023-03-30T13:58:49.902Z,35.00
2023-03-30T14:01:33.300Z,35.20
2023-03-30T14:04:13.430Z,35.20
2023-03-30T14:07:02.612Z,34.80
2023-03-30T14:09:34.917Z,34.70
2023-03-30T14:12:03.484Z,34.40
2023-03-30T14:14:53.836Z,34.30
2023-03-30T14:17:22.927Z,34.20
2023-03-30T14:20:06.828Z,34.00
2023-03-30T14:22:40.328Z,33.90
2023-03-30T14:25:27.544Z,34.20
2023-03-30T14:27:57.682Z,34.30
2023-03-30T14:30:34.632Z,34.60
2023-03-30T14:33:11.105Z,34.70
2023-03-30T14:35:42.800Z,34.40
2023-03-30T14:38:30.016Z,34.30
2023-03-30T14:41:01.454Z,34.10
2023-03-30T14:43:57.549Z,34.10
2023-03-30T14:46:39.928Z,34.00
2023-03-30T14:49:18.657Z,33.90
2023-03-30T14:51:51.907Z,33.80
2023-03-30T14:54:22.985Z,34.20
2023-03-30T14:57:02.221Z,34.30
2023-03-30T14:59:32.820Z,34.80
2023-03-30T15:02:13.111Z,34.50
2023-03-30T15:04:50.251Z,34.30
2023-03-30T15:07:25.923Z,34.20
2023-03-30T15:09:59.396Z,34.20
2023-03-30T15:12:29.046Z,34.10
2023-03-30T15:14:58.952Z,33.90
2023-03-30T15:17:29.559Z,33.80
2023-03-30T15:20:01.170Z,33.90
2023-03-30T15:22:40.395Z,34.10
2023-03-30T15:25:09.810Z,34.30
2023-03-30T15:27:38.043Z,34.80
2023-03-30T15:30:07.013Z,34.50
2023-03-30T15:32:42.912Z,34.30
2023-03-30T15:35:21.204Z,34.20
2023-03-30T15:37:54.531Z,34.10
2023-03-30T15:40:34.855Z,34.00
2023-03-30T15:43:17.853Z,33.90
2023-03-30T15:46:01.877Z,33.80
2023-03-30T15:48:47.089Z,33.90
2023-03-30T15:54:13.559Z,34.40
2023-03-30T15:56:55.176Z,34.70
2023-03-30T15:59:23.510Z,35.10
2023-03-30T16:01:53.792Z,35.50
2023-03-30T16:04:30.964Z,35.40
2023-03-30T16:06:59.564Z,35.00
2023-03-30T16:09:33.871Z,34.80
2023-03-30T16:12:01.991Z,34.60
2023-03-30T16:14:33.342Z,34.40
2023-03-30T16:17:01.623Z,34.40
2023-03-30T16:19:32.336Z,34.20
2023-03-30T16:22:00.688Z,34.10
2023-03-30T16:24:37.066Z,34.20
2023-03-30T16:27:05.953Z,34.40
2023-03-30T16:29:42.219Z,34.60
2023-03-30T16:32:10.410Z,35.10
2023-03-30T16:34:43.027Z,34.70
2023-03-30T16:37:29.529Z,34.50
2023-03-30T16:39:58.728Z,34.50
2023-03-30T16:42:29.232Z,34.30
2023-03-30T16:45:01.266Z,34.20
2023-03-30T16:47:41.128Z,34.00
2023-03-30T16:50:38.935Z,34.00
2023-03-30T16:53:10.832Z,34.10
2023-03-30T16:55:41.570Z,34.30
2023-03-30T16:58:32.511Z,34.50
2023-03-30T17:01:05.642Z,35.00
2023-03-30T17:03:37.070Z,34.60
2023-03-30T17:06:17.604Z,34.50
2023-03-30T17:08:49.561Z,34.30
2023-03-30T17:11:18.404Z,34.20
2023-03-30T17:13:49.197Z,34.10
2023-03-30T17:16:18.597Z,34.00
2023-03-30T17:19:03.189Z,34.00
2023-03-30T17:21:51.861Z,34.10
2023-03-30T17:24:21.063Z,34.40
2023-03-30T17:26:51.756Z,34.50
2023-03-30T17:29:49.426Z,34.90
2023-03-30T17:32:17.906Z,34.60
2023-03-30T17:34:52.817Z,34.40
2023-03-30T17:37:22.778Z,34.20
2023-03-30T17:39:54.131Z,34.10
2023-03-30T17:42:32.778Z,34.00
2023-03-30T17:45:04.722Z,34.00
2023-03-30T17:47:50.841Z,34.00
2023-03-30T17:50:24.804Z,34.20
2023-03-30T17:52:59.105Z,34.40
2023-03-30T17:55:40.818Z,34.50
2023-03-30T17:58:14.895Z,35.00
2023-03-30T18:00:43.315Z,35.50
2023-03-30T18:03:18.009Z,35.70
2023-03-30T18:05:46.383Z,35.40
2023-03-30T18:08:21.732Z,35.10
2023-03-30T18:10:54.407Z,35.00
2023-03-30T18:13:23.347Z,34.80
2023-03-30T18:16:03.370Z,34.60
2023-03-30T18:18:36.564Z,34.50
2023-03-30T18:21:28.677Z,34.20
2023-03-30T18:24:05.685Z,34.20
2023-03-30T18:26:36.608Z,34.60
2023-03-30T18:29:25.692Z,34.70
2023-03-30T18:31:58.241Z,35.20
2023-03-30T18:34:46.411Z,35.00
2023-03-30T18:37:19.273Z,34.80
2023-03-30T18:39:48.849Z,34.60
2023-03-30T18:42:22.908Z,34.50
2023-03-30T18:44:55.429Z,34.40
2023-03-30T18:47:30.387Z,34.20
2023-03-30T18:50:17.328Z,34.10
2023-03-30T18:52:52.550Z,34.20
2023-03-30T18:55:31.949Z,34.50
2023-03-30T19:00:43.760Z,35.10
2023-03-30T19:03:39.180Z,34.80
2023-03-30T19:06:37.693Z,34.70
2023-03-30T19:09:42.536Z,34.60
2023-03-30T19:12:32.832Z,34.40
2023-03-30T19:15:02.110Z,34.20
2023-03-30T19:17:30.279Z,34.10
2023-03-30T19:20:01.452Z,34.00
2023-03-30T19:22:29.889Z,34.30
2023-03-30T19:24:58.052Z,34.60
2023-03-30T19:27:26.154Z,34.90
2023-03-30T19:29:55.634Z,34.90
2023-03-30T19:32:23.730Z,34.70
2023-03-30T19:34:51.840Z,34.50
2023-03-30T19:37:21.764Z,34.40
2023-03-30T19:39:52.620Z,34.20
2023-03-30T19:42:20.795Z,34.20
2023-03-30T19:44:48.881Z,34.10
2023-03-30T19:47:18.378Z,33.90
2023-03-30T19:49:47.085Z,34.20
2023-03-30T19:52:15.714Z,34.50
2023-03-30T19:54:43.862Z,34.80
2023-03-30T19:57:12.616Z,35.10
2023-03-30T19:59:41.852Z,35.30
2023-03-30T20:02:11.257Z,35.50
2023-03-30T20:04:40.878Z,35.60
2023-03-30T20:07:10.528Z,35.30
2023-03-30T20:09:41.793Z,35.10
2023-03-30T20:12:10.076Z,35.00
2023-03-30T20:14:38.164Z,34.80
2023-03-30T20:17:10.232Z,34.70
2023-03-30T20:19:40.831Z,34.60
2023-03-30T20:22:10.811Z,34.40
2023-03-30T20:24:39.243Z,34.40
2023-03-30T20:27:08.062Z,34.80
2023-03-30T20:29:37.026Z,35.10
2023-03-30T20:32:05.631Z,35.30
2023-03-30T20:34:33.842Z,35.00
2023-03-30T20:37:04.821Z,34.90
2023-03-30T20:39:34.294Z,34.70
2023-03-30T20:42:08.450Z,34.60
2023-03-30T20:44:41.164Z,34.40
2023-03-30T20:47:12.910Z,34.30
2023-03-30T20:49:43.700Z,34.20
2023-03-30T20:52:13.201Z,34.10
2023-03-30T20:54:42.685Z,34.50
2023-03-30T20:57:11.119Z,34.70
2023-03-30T20:59:39.767Z,35.10
2023-03-30T21:02:07.873Z,35.00
2023-03-30T21:04:39.006Z,34.80
2023-03-30T21:07:10.971Z,35.20
2023-03-30T21:09:40.577Z,34.50
2023-03-30T21:12:09.752Z,34.40
2023-03-30T21:14:37.817Z,34.30
2023-03-30T21:17:06.334Z,34.10
2023-03-30T21:19:34.908Z,34.00
2023-03-30T21:22:03.584Z,34.90
2023-03-30T21:24:31.656Z,34.60
2023-03-30T21:27:01.103Z,35.00
2023-03-30T21:29:29.160Z,35.10
2023-03-30T21:31:57.825Z,34.70
2023-03-30T21:34:26.080Z,34.60
2023-03-30T21:36:54.177Z,34.40
2023-03-30T21:39:22.330Z,34.20
2023-03-30T21:41:50.734Z,34.20
2023-03-30T21:44:20.176Z,34.00
2023-03-30T21:46:48.326Z,33.90
2023-03-30T21:49:16.515Z,34.10
2023-03-30T21:51:44.617Z,34.30
2023-03-30T21:54:12.656Z,34.80
2023-03-30T21:56:40.877Z,35.10
2023-03-30T21:59:11.864Z,36.00
2023-03-30T22:01:41.377Z,35.40
2023-03-30T22:04:10.725Z,35.60
2023-03-30T22:06:38.827Z,35.30
2023-03-30T22:09:07.043Z,35.20
2023-03-30T22:11:35.847Z,35.00
2023-03-30T22:14:04.402Z,34.80
2023-03-30T22:16:33.319Z,34.70
2023-03-30T22:19:02.883Z,34.50
2023-03-30T22:21:35.585Z,34.40
2023-03-30T22:24:04.044Z,34.30
2023-03-30T22:26:32.131Z,34.60
2023-03-30T22:29:00.958Z,34.90
2023-03-30T22:31:29.052Z,35.30
2023-03-30T22:33:57.695Z,35.10
2023-03-30T22:36:30.028Z,34.80
2023-03-30T22:38:58.977Z,34.70
2023-03-30T22:41:30.166Z,34.60
2023-03-30T22:43:58.514Z,34.40
2023-03-30T22:46:30.154Z,34.30
2023-03-30T22:48:58.230Z,34.20
2023-03-30T22:51:27.676Z,34.10
2023-03-30T22:53:57.762Z,34.30
2023-03-30T22:56:25.899Z,34.60
2023-03-30T22:58:54.003Z,35.00
2023-03-30T23:01:22.305Z,35.10
2023-03-30T23:03:50.893Z,34.70
2023-03-30T23:06:19.611Z,34.60
2023-03-30T23:08:49.271Z,34.50
2023-03-30T23:11:17.335Z,34.40
2023-03-30T23:13:46.603Z,34.20
2023-03-30T23:16:15.839Z,34.10
2023-03-30T23:18:43.890Z,34.00
2023-03-30T23:21:14.023Z,33.90
2023-03-30T23:23:42.279Z,34.30
2023-03-30T23:26:12.333Z,34.80
2023-03-30T23:28:42.042Z,35.00
2023-03-30T23:31:10.732Z,34.80
2023-03-30T23:33:38.882Z,34.50
2023-03-30T23:36:08.341Z,34.50
2023-03-30T23:38:37.600Z,34.40
2023-03-30T23:41:06.063Z,34.20
2023-03-30T23:43:35.478Z,34.10
2023-03-30T23:46:03.938Z,34.00
2023-03-30T23:48:32.522Z,33.90
2023-03-30T23:51:00.674Z,34.20
2023-03-30T23:53:28.810Z,34.50
2023-03-30T23:55:58.391Z,35.00
2023-03-30T23:58:26.683Z,35.10
